Terminal Aerodrome Forecast
Issued by NWS Charleston, WV

Current Version | Previous Version | Graphics & Text | Print | Product List | Glossary On
Versions: 1 2 3 4 5 6 7 8 9 10 11 12 13 14 15 16 17 18 19 20 21 22 23 24 25
000
FTUS41 KRLX 200531
TAFEKN
TAF
KEKN 200531Z 2006/2106 00000KT 6SM BR SCT025
     FM200730 00000KT 1SM BR SCT001 SCT015
     FM200900 00000KT 1/2SM FG OVC001
     FM201200 15004KT 4SM BR SCT002 BKN025
     FM201300 VRB03KT P6SM BKN040
     FM201600 00000KT P6SM SHRA VCTS BKN040CB
     FM202100 12005KT P6SM BKN035=

USA.gov is the U.S. government's official web portal to all federal, state and local government web resources and services.